createdAt,value
2023-02-15T00:00:11.906Z,100402.00
2023-02-15T00:02:45.278Z,100400.00
2023-02-15T00:05:12.153Z,100372.00
2023-02-15T00:07:45.300Z,100378.00
2023-02-15T00:10:12.237Z,100386.00
2023-02-15T00:12:45.270Z,100393.00
2023-02-15T00:15:18.299Z,100396.00
2023-02-15T00:17:51.301Z,100393.00
2023-02-15T00:20:24.330Z,100402.00
2023-02-15T00:22:51.228Z,100398.00
2023-02-15T00:25:24.292Z,100399.00
2023-02-15T00:27:57.310Z,100389.00
2023-02-15T00:30:39.319Z,100399.00
2023-02-15T00:33:06.196Z,100400.00
2023-02-15T00:35:39.365Z,100399.00
2023-02-15T00:38:06.261Z,100402.00
2023-02-15T00:40:39.359Z,100397.00
2023-02-15T00:43:06.303Z,100394.00
2023-02-15T00:45:33.167Z,100380.00
2023-02-15T00:48:06.290Z,100391.00
2023-02-15T00:50:40.054Z,100397.00
2023-02-15T00:53:13.307Z,100384.00
2023-02-15T00:55:40.196Z,100387.00
2023-02-15T00:58:17.317Z,100370.00
2023-02-15T01:00:52.351Z,100376.00
2023-02-15T01:03:26.289Z,100381.00
2023-02-15T01:05:53.170Z,100377.00
2023-02-15T01:08:26.360Z,100387.00
2023-02-15T01:11:00.330Z,100389.00
2023-02-15T01:13:33.339Z,100397.00
2023-02-15T01:16:00.651Z,100371.00
2023-02-15T01:18:34.334Z,100384.00
2023-02-15T01:21:01.263Z,100380.00
2023-02-15T01:23:34.330Z,100368.00
2023-02-15T01:26:03.910Z,100377.00
2023-02-15T01:28:37.334Z,100379.00
2023-02-15T01:31:16.784Z,100368.00
2023-02-15T01:33:50.323Z,100375.00
2023-02-15T01:36:17.269Z,100378.00
2023-02-15T01:38:50.373Z,100370.00
2023-02-15T01:41:17.267Z,100371.00
2023-02-15T01:43:49.210Z,100370.00
2023-02-15T01:46:24.373Z,100366.00
2023-02-15T01:49:26.384Z,100359.00
2023-02-15T01:51:53.311Z,100360.00
2023-02-15T01:54:34.321Z,100350.00
2023-02-15T01:57:06.366Z,100355.00
2023-02-15T01:59:40.338Z,100359.00
2023-02-15T02:02:08.169Z,100355.00
2023-02-15T02:05:02.372Z,100354.00
2023-02-15T02:07:30.339Z,100364.00
2023-02-15T02:10:03.364Z,100344.00
2023-02-15T02:12:30.319Z,100335.00
2023-02-15T02:14:57.205Z,100349.00
2023-02-15T02:17:48.343Z,100358.00
2023-02-15T02:20:53.293Z,100352.00
2023-02-15T02:23:35.370Z,100350.00
2023-02-15T02:26:36.356Z,100343.00
2023-02-15T02:30:10.409Z,100338.00
2023-02-15T02:33:20.346Z,100325.00
2023-02-15T02:35:54.291Z,100309.00
2023-02-15T02:38:48.355Z,100326.00
2023-02-15T02:41:33.171Z,100332.00
2023-02-15T02:44:41.370Z,100335.00
2023-02-15T02:47:55.412Z,100334.00
2023-02-15T02:50:28.989Z,100335.00
2023-02-15T02:53:04.409Z,100336.00
2023-02-15T02:55:41.910Z,100326.00
2023-02-15T02:58:21.365Z,100334.00
2023-02-15T03:01:16.346Z,100325.00
2023-02-15T03:03:58.885Z,100300.00
2023-02-15T03:07:04.362Z,100319.00
2023-02-15T03:09:34.159Z,100313.00
2023-02-15T03:12:08.407Z,100311.00
2023-02-15T03:14:35.327Z,100312.00
2023-02-15T03:17:08.350Z,100316.00
2023-02-15T03:19:36.868Z,100316.00
2023-02-15T03:22:28.380Z,100323.00
2023-02-15T03:25:12.430Z,100315.00
2023-02-15T03:27:45.848Z,100314.00
2023-02-15T03:30:19.548Z,100311.00
2023-02-15T03:32:46.504Z,100307.00
2023-02-15T03:35:20.382Z,100308.00
2023-02-15T03:37:56.740Z,100317.00
2023-02-15T03:40:38.392Z,100305.00
2023-02-15T03:43:08.253Z,100295.00
2023-02-15T03:45:35.125Z,100288.00
2023-02-15T03:48:08.384Z,100301.00
2023-02-15T03:50:43.411Z,100287.00
2023-02-15T03:53:19.790Z,100311.00
2023-02-15T03:55:48.892Z,100311.00
2023-02-15T03:58:22.464Z,100312.00
2023-02-15T04:01:26.753Z,100313.00
2023-02-15T04:04:27.422Z,100308.00
2023-02-15T04:06:54.348Z,100313.00
2023-02-15T04:09:27.383Z,100316.00
2023-02-15T04:12:00.375Z,100310.00
2023-02-15T04:14:33.371Z,100307.00
2023-02-15T04:17:00.220Z,100309.00
2023-02-15T04:19:33.387Z,100306.00
2023-02-15T04:22:00.234Z,100322.00
2023-02-15T04:24:33.391Z,100307.00
2023-02-15T04:27:00.541Z,100297.00
2023-02-15T04:29:34.424Z,100297.00
2023-02-15T04:32:08.467Z,100306.00
2023-02-15T04:34:35.353Z,100304.00
2023-02-15T04:37:08.383Z,100311.00
2023-02-15T04:39:41.381Z,100318.00
2023-02-15T04:42:08.290Z,100307.00
2023-02-15T04:44:35.176Z,100311.00
2023-02-15T04:47:08.424Z,100315.00
2023-02-15T04:49:35.321Z,100304.00
2023-02-15T04:52:08.388Z,100308.00
2023-02-15T04:54:35.261Z,100308.00
2023-02-15T04:57:08.412Z,100287.00
2023-02-15T04:59:41.433Z,100292.00
2023-02-15T05:02:14.394Z,100295.00
2023-02-15T05:04:41.268Z,100294.00
2023-02-15T05:07:14.420Z,100292.00
2023-02-15T05:09:41.301Z,100296.00
2023-02-15T05:12:08.264Z,100289.00
2023-02-15T05:14:41.373Z,100285.00
2023-02-15T05:17:08.288Z,100267.00
2023-02-15T05:19:35.163Z,100289.00
2023-02-15T05:22:08.458Z,100288.00
2023-02-15T05:24:35.340Z,100291.00
2023-02-15T05:27:08.383Z,100293.00
2023-02-15T05:29:35.289Z,100291.00
2023-02-15T05:32:02.398Z,100279.00
2023-02-15T05:34:35.400Z,100277.00
2023-02-15T05:37:02.385Z,100282.00
2023-02-15T05:39:35.417Z,100288.00
2023-02-15T05:42:02.410Z,100295.00
2023-02-15T05:44:35.423Z,100300.00
2023-02-15T05:47:02.269Z,100301.00
2023-02-15T05:49:35.441Z,100289.00
2023-02-15T05:52:02.470Z,100290.00
2023-02-15T05:54:29.399Z,100288.00
2023-02-15T05:57:02.416Z,100293.00
2023-02-15T05:59:35.417Z,100302.00
2023-02-15T06:02:08.477Z,100297.00
2023-02-15T06:04:35.400Z,100292.00
2023-02-15T06:07:08.459Z,100297.00
2023-02-15T06:09:42.103Z,100303.00
2023-02-15T06:12:15.433Z,100296.00
2023-02-15T06:14:42.322Z,100291.00
2023-02-15T06:17:15.575Z,100304.00
2023-02-15T06:19:42.515Z,100298.00
2023-02-15T06:22:15.470Z,100313.00
2023-02-15T06:24:48.465Z,100306.00
2023-02-15T06:27:15.356Z,100325.00
2023-02-15T06:29:48.444Z,100321.00
2023-02-15T06:32:15.334Z,100334.00
2023-02-15T06:34:48.963Z,100336.00
2023-02-15T06:37:22.418Z,100338.00
2023-02-15T06:39:49.312Z,100336.00
2023-02-15T06:42:22.464Z,100343.00
2023-02-15T06:44:49.407Z,100341.00
2023-02-15T06:47:22.499Z,100348.00
2023-02-15T06:49:55.488Z,100345.00
2023-02-15T06:52:22.440Z,100364.00
2023-02-15T06:54:56.501Z,100357.00
2023-02-15T06:57:23.601Z,100357.00
2023-02-15T06:59:57.602Z,100347.00
2023-02-15T07:02:27.089Z,100356.00
2023-02-15T07:04:53.982Z,100336.00
2023-02-15T07:07:27.500Z,100354.00
2023-02-15T07:09:54.431Z,100346.00
2023-02-15T07:12:21.341Z,100350.00
2023-02-15T07:14:54.494Z,100335.00
2023-02-15T07:17:35.321Z,100336.00
2023-02-15T07:20:21.450Z,100357.00
2023-02-15T07:22:48.648Z,100359.00
2023-02-15T07:25:22.410Z,100351.00
2023-02-15T07:27:49.327Z,100337.00
2023-02-15T07:30:24.513Z,100338.00
2023-02-15T07:32:51.481Z,100345.00
2023-02-15T07:35:24.473Z,100354.00
2023-02-15T07:37:51.353Z,100344.00
2023-02-15T07:40:24.543Z,100338.00
2023-02-15T07:42:53.156Z,100348.00
2023-02-15T07:45:21.068Z,100348.00
2023-02-15T07:47:54.459Z,100355.00
2023-02-15T07:50:21.422Z,100351.00
2023-02-15T07:52:54.538Z,100319.00
2023-02-15T07:55:21.572Z,100332.00
2023-02-15T07:57:56.481Z,100347.00
2023-02-15T08:00:23.653Z,100318.00
2023-02-15T08:03:06.612Z,100317.00
2023-02-15T08:05:33.700Z,100334.00
2023-02-15T08:08:00.585Z,100319.00
2023-02-15T08:10:34.487Z,100326.00
2023-02-15T08:13:01.447Z,100336.00
2023-02-15T08:15:34.520Z,100330.00
2023-02-15T08:18:01.475Z,100337.00
2023-02-15T08:20:34.565Z,100331.00
2023-02-15T08:23:01.517Z,100335.00
2023-02-15T08:25:34.594Z,100341.00
2023-02-15T08:28:01.622Z,100335.00
2023-02-15T08:30:28.778Z,100346.00
2023-02-15T08:33:02.596Z,100344.00
2023-02-15T08:35:29.509Z,100337.00
2023-02-15T08:38:02.571Z,100339.00
2023-02-15T08:40:29.553Z,100332.00
2023-02-15T08:43:03.590Z,100338.00
2023-02-15T08:45:30.659Z,100335.00
2023-02-15T08:48:04.495Z,100319.00
2023-02-15T08:50:31.414Z,100330.00
2023-02-15T08:53:04.526Z,100337.00
2023-02-15T08:55:31.532Z,100330.00
2023-02-15T08:58:05.617Z,100334.00
2023-02-15T09:00:32.653Z,100347.00
2023-02-15T09:03:06.554Z,100332.00
2023-02-15T09:05:33.568Z,100313.00
2023-02-15T09:08:06.594Z,100315.00
2023-02-15T09:10:40.645Z,100324.00
2023-02-15T09:13:07.585Z,100332.00
2023-02-15T09:15:34.505Z,100332.00
2023-02-15T09:18:07.575Z,100325.00
2023-02-15T09:20:37.862Z,100321.00
2023-02-15T09:23:21.893Z,100319.00
2023-02-15T09:25:52.364Z,100321.00
2023-02-15T09:28:25.717Z,100323.00
2023-02-15T09:30:52.782Z,100324.00
2023-02-15T09:33:26.524Z,100315.00
2023-02-15T09:35:53.473Z,100326.00
2023-02-15T09:38:26.552Z,100335.00
2023-02-15T09:41:25.578Z,100334.00
2023-02-15T09:44:36.666Z,100326.00
2023-02-15T09:48:08.581Z,100325.00
2023-02-15T09:51:10.592Z,100332.00
2023-02-15T09:54:15.603Z,100323.00
2023-02-15T09:56:56.619Z,100325.00
2023-02-15T09:59:44.589Z,100340.00
2023-02-15T10:03:02.596Z,100339.00
2023-02-15T10:06:01.932Z,100334.00
2023-02-15T10:09:15.589Z,100340.00
2023-02-15T10:12:52.596Z,100347.00
2023-02-15T10:15:22.361Z,100344.00
2023-02-15T10:18:36.626Z,100338.00
2023-02-15T10:21:44.008Z,100312.00
2023-02-15T10:24:44.686Z,100340.00
2023-02-15T10:27:20.137Z,100332.00
2023-02-15T10:30:05.747Z,100337.00
2023-02-15T10:32:43.625Z,100341.00
2023-02-15T10:35:35.502Z,100324.00
2023-02-15T10:39:04.649Z,100332.00
2023-02-15T10:42:00.316Z,100336.00
2023-02-15T10:45:03.660Z,100342.00
2023-02-15T10:47:51.594Z,100332.00
2023-02-15T10:50:48.612Z,100326.00
2023-02-15T10:53:18.186Z,100316.00
2023-02-15T10:56:16.674Z,100314.00
2023-02-15T10:59:21.726Z,100292.00
2023-02-15T11:02:14.664Z,100308.00
2023-02-15T11:04:48.999Z,100294.00
2023-02-15T11:07:42.642Z,100310.00
2023-02-15T11:10:54.123Z,100299.00
2023-02-15T11:13:29.680Z,100309.00
2023-02-15T11:16:06.272Z,100286.00
2023-02-15T11:19:00.655Z,100290.00
2023-02-15T11:21:38.459Z,100289.00
2023-02-15T11:24:23.674Z,100290.00
2023-02-15T11:27:08.755Z,100274.00
2023-02-15T11:29:44.649Z,100284.00
2023-02-15T11:32:38.536Z,100287.00
2023-02-15T11:35:18.669Z,100283.00
2023-02-15T11:37:56.457Z,100272.00
2023-02-15T11:40:43.753Z,100269.00
2023-02-15T11:43:22.898Z,100246.00
2023-02-15T11:45:56.794Z,100241.00
2023-02-15T11:48:23.948Z,100241.00
2023-02-15T11:50:57.716Z,100245.00
2023-02-15T11:53:24.744Z,100216.00
2023-02-15T11:55:58.647Z,100229.00
2023-02-15T11:58:53.599Z,100240.00
2023-02-15T12:01:42.680Z,100238.00
2023-02-15T12:04:49.663Z,100235.00
2023-02-15T12:07:32.210Z,100230.00
2023-02-15T12:10:29.728Z,100222.00
2023-02-15T12:13:20.700Z,100224.00
2023-02-15T12:15:51.147Z,100209.00
2023-02-15T12:18:46.766Z,100217.00
2023-02-15T12:21:34.294Z,100209.00
2023-02-15T12:24:22.630Z,100194.00
2023-02-15T12:27:20.329Z,100210.00
2023-02-15T12:30:25.753Z,100199.00
2023-02-15T12:32:59.126Z,100201.00
2023-02-15T12:35:40.644Z,100199.00
2023-02-15T12:38:31.754Z,100200.00
2023-02-15T12:41:33.565Z,100184.00
2023-02-15T12:44:23.932Z,100176.00
2023-02-15T12:47:16.712Z,100168.00
2023-02-15T12:49:50.692Z,100170.00
2023-02-15T12:52:20.741Z,100171.00
2023-02-15T12:54:54.687Z,100153.00
2023-02-15T12:57:33.104Z,100153.00
2023-02-15T13:00:34.803Z,100163.00
2023-02-15T13:03:01.822Z,100141.00
2023-02-15T13:05:51.833Z,100136.00
2023-02-15T13:08:56.767Z,100139.00
2023-02-15T13:11:32.049Z,100143.00
2023-02-15T13:14:23.709Z,100139.00
2023-02-15T13:16:53.037Z,100141.00
2023-02-15T13:19:41.712Z,100132.00
2023-02-15T13:22:18.827Z,100118.00
2023-02-15T13:24:55.818Z,100116.00
2023-02-15T13:27:49.754Z,100105.00
2023-02-15T13:30:31.428Z,100109.00
2023-02-15T13:33:11.737Z,100118.00
2023-02-15T13:36:07.727Z,100104.00
2023-02-15T13:39:08.749Z,100103.00
2023-02-15T13:41:39.734Z,100095.00
2023-02-15T13:45:09.795Z,100100.00
2023-02-15T13:48:10.544Z,100090.00
2023-02-15T13:51:10.768Z,100097.00
2023-02-15T13:54:34.851Z,100099.00
2023-02-15T13:57:12.863Z,100095.00
2023-02-15T14:00:32.191Z,100094.00
2023-02-15T14:03:08.709Z,100078.00
2023-02-15T14:06:03.494Z,100082.00
2023-02-15T14:08:58.812Z,100064.00
2023-02-15T14:11:34.696Z,100085.00
2023-02-15T14:14:28.775Z,100081.00
2023-02-15T14:17:37.696Z,100075.00
2023-02-15T14:20:27.796Z,100048.00
2023-02-15T14:23:14.867Z,100064.00
2023-02-15T14:25:50.764Z,100069.00
2023-02-15T14:28:42.781Z,100078.00
2023-02-15T14:31:17.781Z,100078.00
2023-02-15T14:33:56.187Z,100068.00
2023-02-15T14:36:30.046Z,100058.00
2023-02-15T14:39:42.843Z,100070.00
2023-02-15T14:42:31.059Z,100043.00
2023-02-15T14:45:33.271Z,100069.00
2023-02-15T14:48:18.709Z,100077.00
2023-02-15T14:50:47.802Z,100062.00
2023-02-15T14:53:29.834Z,100078.00
2023-02-15T14:56:23.326Z,100069.00
2023-02-15T14:58:59.781Z,100074.00
2023-02-15T15:01:39.881Z,100075.00
2023-02-15T15:04:22.900Z,100067.00
2023-02-15T15:07:30.852Z,100054.00
2023-02-15T15:10:05.215Z,100076.00
2023-02-15T15:12:41.938Z,100067.00
2023-02-15T15:15:13.174Z,100031.00
2023-02-15T15:17:46.813Z,100066.00
2023-02-15T15:20:30.006Z,100067.00
2023-02-15T15:23:21.772Z,100067.00
2023-02-15T15:26:03.088Z,100049.00
2023-02-15T15:28:36.454Z,100060.00
2023-02-15T15:32:08.004Z,100059.00
2023-02-15T15:35:17.338Z,100051.00
2023-02-15T15:38:15.786Z,100057.00
2023-02-15T15:41:19.965Z,100075.00
2023-02-15T15:44:36.820Z,100067.00
2023-02-15T15:47:09.772Z,100065.00
2023-02-15T15:49:43.822Z,100069.00
2023-02-15T15:52:18.370Z,100066.00
2023-02-15T15:54:53.856Z,100063.00
2023-02-15T15:57:34.761Z,100059.00
2023-02-15T16:00:02.014Z,100069.00
2023-02-15T16:02:29.366Z,100047.00
2023-02-15T16:05:14.847Z,100038.00
2023-02-15T16:07:42.033Z,100065.00
2023-02-15T16:10:33.903Z,100067.00
2023-02-15T16:13:00.999Z,100039.00
2023-02-15T16:16:04.212Z,100060.00
2023-02-15T16:18:37.853Z,100055.00
2023-02-15T16:21:04.939Z,100044.00
2023-02-15T16:23:44.825Z,100060.00
2023-02-15T16:26:46.880Z,100056.00
2023-02-15T16:29:18.616Z,100062.00
2023-02-15T16:32:22.888Z,100063.00
2023-02-15T16:35:01.548Z,100057.00
2023-02-15T16:37:39.817Z,100061.00
2023-02-15T16:40:07.993Z,100061.00
2023-02-15T16:42:41.902Z,100054.00
2023-02-15T16:45:14.027Z,100067.00
2023-02-15T16:47:49.946Z,100033.00
2023-02-15T16:50:24.277Z,100068.00
2023-02-15T16:53:03.872Z,100073.00
2023-02-15T16:55:43.824Z,100077.00
2023-02-15T16:58:30.884Z,100077.00
2023-02-15T17:01:02.616Z,100061.00
2023-02-15T17:03:30.121Z,100042.00
2023-02-15T17:06:07.899Z,100054.00
2023-02-15T17:08:48.941Z,100069.00
2023-02-15T17:11:22.827Z,100058.00
2023-02-15T17:14:11.920Z,100074.00
2023-02-15T17:16:54.232Z,100088.00
2023-02-15T17:19:57.856Z,100089.00
2023-02-15T17:22:32.828Z,100088.00
2023-02-15T17:25:01.692Z,100085.00
2023-02-15T17:27:30.144Z,100099.00
2023-02-15T17:30:10.007Z,100107.00
2023-02-15T17:32:37.265Z,100089.00
2023-02-15T17:35:10.847Z,100097.00
2023-02-15T17:37:37.813Z,100061.00
2023-02-15T17:40:35.911Z,100100.00
2023-02-15T17:43:09.874Z,100105.00
2023-02-15T17:45:41.910Z,100091.00
2023-02-15T17:48:24.919Z,100079.00
2023-02-15T17:50:52.074Z,100103.00
2023-02-15T17:53:25.894Z,100093.00
2023-02-15T17:55:52.933Z,100098.00
2023-02-15T17:58:20.342Z,100100.00
2023-02-15T18:01:05.419Z,100089.00
2023-02-15T18:03:47.250Z,100110.00
2023-02-15T18:06:20.962Z,100118.00
2023-02-15T18:08:47.984Z,100125.00
2023-02-15T18:11:21.868Z,100090.00
2023-02-15T18:13:54.884Z,100115.00
2023-02-15T18:16:25.055Z,100105.00
2023-02-15T18:18:52.187Z,100118.00
2023-02-15T18:21:25.878Z,100129.00
2023-02-15T18:23:52.829Z,100127.00
2023-02-15T18:26:30.928Z,100127.00
2023-02-15T18:28:57.949Z,100118.00
2023-02-15T18:31:31.976Z,100127.00
2023-02-15T18:34:06.977Z,100128.00
2023-02-15T18:36:40.239Z,100124.00
2023-02-15T18:39:37.966Z,100130.00
2023-02-15T18:42:05.926Z,100131.00
2023-02-15T18:44:39.978Z,100131.00
2023-02-15T18:47:13.900Z,100140.00
2023-02-15T18:49:40.929Z,100128.00
2023-02-15T18:52:30.031Z,100137.00
2023-02-15T18:55:02.672Z,100134.00
2023-02-15T18:57:35.973Z,100131.00
2023-02-15T19:00:03.555Z,100136.00
2023-02-15T19:02:37.037Z,100133.00
2023-02-15T19:05:04.126Z,100136.00
2023-02-15T19:07:31.262Z,100137.00
2023-02-15T19:10:05.966Z,100129.00
2023-02-15T19:12:33.210Z,100125.00
2023-02-15T19:15:06.966Z,100147.00
2023-02-15T19:17:34.142Z,100144.00
2023-02-15T19:20:07.902Z,100144.00
2023-02-15T19:22:40.980Z,100137.00
2023-02-15T19:25:14.934Z,100136.00
2023-02-15T19:27:42.044Z,100144.00
2023-02-15T19:30:25.989Z,100138.00
2023-02-15T19:32:53.129Z,100108.00
2023-02-15T19:35:22.680Z,100149.00
2023-02-15T19:38:01.012Z,100147.00
2023-02-15T19:40:34.983Z,100135.00
2023-02-15T19:43:10.020Z,100152.00
2023-02-15T19:45:43.943Z,100149.00
2023-02-15T19:48:13.268Z,100155.00
2023-02-15T19:50:47.029Z,100128.00
2023-02-15T19:53:25.302Z,100149.00
2023-02-15T19:55:59.025Z,100154.00
2023-02-15T19:58:26.023Z,100165.00
2023-02-15T20:01:00.034Z,100146.00
2023-02-15T20:03:27.172Z,100150.00
2023-02-15T20:06:00.986Z,100148.00
2023-02-15T20:08:28.782Z,100145.00
2023-02-15T20:10:57.221Z,100160.00
2023-02-15T20:13:30.996Z,100153.00
2023-02-15T20:15:58.038Z,100130.00
2023-02-15T20:18:25.162Z,100148.00
2023-02-15T20:21:01.321Z,100152.00
2023-02-15T20:23:41.060Z,100165.00
2023-02-15T20:26:15.264Z,100167.00
2023-02-15T20:28:48.984Z,100142.00
2023-02-15T20:31:24.057Z,100164.00
2023-02-15T20:33:51.951Z,100163.00
2023-02-15T20:36:26.999Z,100156.00
2023-02-15T20:39:00.824Z,100170.00
2023-02-15T20:41:34.058Z,100146.00
2023-02-15T20:44:01.699Z,100179.00
2023-02-15T20:46:28.785Z,100170.00
2023-02-15T20:49:02.112Z,100175.00
2023-02-15T20:51:36.056Z,100180.00
2023-02-15T20:54:19.018Z,100178.00
2023-02-15T20:56:46.801Z,100175.00
2023-02-15T20:59:37.004Z,100162.00
2023-02-15T21:02:26.004Z,100175.00
2023-02-15T21:05:00.071Z,100149.00
2023-02-15T21:07:27.178Z,100169.00
2023-02-15T21:09:54.341Z,100184.00
2023-02-15T21:12:27.988Z,100182.00
2023-02-15T21:15:02.087Z,100176.00
2023-02-15T21:17:29.138Z,100163.00
2023-02-15T21:20:03.125Z,100182.00
2023-02-15T21:22:30.312Z,100157.00
2023-02-15T21:24:57.417Z,100142.00
2023-02-15T21:27:31.111Z,100179.00
2023-02-15T21:29:58.333Z,100173.00
2023-02-15T21:32:32.167Z,100157.00
2023-02-15T21:35:06.076Z,100157.00
2023-02-15T21:37:34.403Z,100193.00
2023-02-15T21:40:01.522Z,100189.00
2023-02-15T21:42:35.013Z,100181.00
2023-02-15T21:45:09.030Z,100194.00
2023-02-15T21:47:36.298Z,100195.00
2023-02-15T21:50:04.778Z,100176.00
2023-02-15T21:52:38.069Z,100173.00
2023-02-15T21:55:19.988Z,100198.00
2023-02-15T21:57:47.155Z,100181.00
2023-02-15T22:00:25.025Z,100201.00
2023-02-15T22:02:54.105Z,100185.00
2023-02-15T22:05:40.072Z,100200.00
2023-02-15T22:08:12.484Z,100176.00
2023-02-15T22:10:39.674Z,100186.00
2023-02-15T22:13:18.078Z,100157.00
2023-02-15T22:15:45.495Z,100192.00
2023-02-15T22:18:36.038Z,100166.00
2023-02-15T22:21:04.077Z,100195.00
2023-02-15T22:23:38.007Z,100197.00
2023-02-15T22:26:19.021Z,100196.00
2023-02-15T22:28:46.049Z,100194.00
2023-02-15T22:31:15.335Z,100186.00
2023-02-15T22:33:49.030Z,100191.00
2023-02-15T22:36:36.086Z,100190.00
2023-02-15T22:39:03.135Z,100181.00
2023-02-15T22:41:43.093Z,100191.00
2023-02-15T22:44:12.465Z,100201.00
2023-02-15T22:46:47.009Z,100184.00
2023-02-15T22:49:21.097Z,100202.00
2023-02-15T22:51:48.780Z,100200.00
2023-02-15T22:54:23.032Z,100201.00
2023-02-15T22:56:54.462Z,100209.00
2023-02-15T22:59:34.985Z,100196.00
2023-02-15T23:02:01.906Z,100201.00
2023-02-15T23:04:36.075Z,100198.00
2023-02-15T23:07:23.011Z,100203.00
2023-02-15T23:09:50.032Z,100212.00
2023-02-15T23:12:30.060Z,100213.00
2023-02-15T23:15:04.070Z,100208.00
2023-02-15T23:17:31.005Z,100208.00
2023-02-15T23:20:04.033Z,100200.00
2023-02-15T23:22:31.102Z,100217.00
2023-02-15T23:25:05.023Z,100209.00
2023-02-15T23:27:38.034Z,100213.00
2023-02-15T23:30:13.102Z,100218.00
2023-02-15T23:32:47.082Z,100187.00
2023-02-15T23:35:19.056Z,100193.00
2023-02-15T23:37:53.053Z,100192.00
2023-02-15T23:40:21.518Z,100206.00
2023-02-15T23:42:55.055Z,100209.00
2023-02-15T23:45:22.939Z,100196.00
2023-02-15T23:47:50.002Z,100211.00
2023-02-15T23:50:36.126Z,100220.00
2023-02-15T23:53:10.146Z,100167.00
2023-02-15T23:55:39.334Z,100208.00
2023-02-15T23:58:09.847Z,100212.00
